Time;durP1;ratioP1;P1;durP2;ratioP2;P2;SDS_P1;SDS_P2;PMS_P1;PMS_P2;Temp;Humidity;BMP_temperature;BMP_pressure;BME280_temperature;BME280_humidity;BME280_pressure;Samples;Min_cycle;Max_cycle;Signal;HPM_P1;HPM_P2
2023/10/13 00:01:04;;;;;;;2.85;1.77;;;;;;;21.94;51.36;101052.66;4985547;28;20057;-82
2023/10/13 00:03:31;;;;;;;2.03;1.80;;;;;;;21.85;51.50;101033.41;4961862;28;20061;-82
2023/10/13 00:06:03;;;;;;;2.22;1.70;;;;;;;21.82;51.11;101019.69;4982830;28;20467;-83
2023/10/13 00:08:29;;;;;;;4.68;1.88;;;;;;;21.83;51.38;101027.47;4981877;28;20046;-84
2023/10/13 00:10:59;;;;;;;2.50;1.85;;;;;;;21.89;51.20;101033.84;4982948;28;20069;-83
2023/10/13 00:13:27;;;;;;;2.13;1.73;;;;;;;21.91;51.29;101034.50;4983422;28;20046;-82
2023/10/13 00:15:58;;;;;;;2.13;1.70;;;;;;;21.91;51.15;101029.19;4978483;28;20137;-82
2023/10/13 00:18:33;;;;;;;2.70;2.15;;;;;;;21.93;51.07;101029.81;4984398;28;20054;-83
2023/10/13 00:24:06;;;;;;;2.00;1.80;;;;;;;21.83;51.44;101008.09;4969217;28;20497;-82
2023/10/13 00:26:36;;;;;;;3.22;2.15;;;;;;;21.80;51.17;101003.97;4984858;28;20089;-82
2023/10/13 00:31:36;;;;;;;2.75;1.90;;;;;;;21.86;51.21;101011.16;4981323;28;20070;-83
2023/10/13 00:34:12;;;;;;;2.55;2.13;;;;;;;21.87;51.19;101006.69;4982733;28;20101;-82
2023/10/13 00:39:25;;;;;;;4.20;2.55;;;;;;;21.91;51.46;101011.44;4983801;28;20050;-83
2023/10/13 00:41:52;;;;;;;2.45;1.70;;;;;;;21.78;51.33;100994.59;4961066;28;20113;-83
2023/10/13 00:44:28;;;;;;;2.50;2.03;;;;;;;21.90;51.48;101012.47;4981848;28;20058;-82
2023/10/13 00:46:56;;;;;;;2.53;1.70;;;;;;;21.92;51.24;101020.22;4965702;28;20051;-83
2023/10/13 00:49:22;;;;;;;3.47;2.17;;;;;;;21.90;51.16;101016.91;4969033;28;20222;-82
2023/10/13 00:51:49;;;;;;;3.25;2.65;;;;;;;21.79;51.30;100994.41;4966024;28;20051;-82
2023/10/13 00:54:18;;;;;;;4.05;2.30;;;;;;;21.89;51.34;101002.84;4967341;28;20537;-83
2023/10/13 00:56:57;;;;;;;3.67;2.17;;;;;;;21.90;51.41;101001.84;4967434;28;20045;-82
2023/10/13 00:59:25;;;;;;;3.70;1.88;;;;;;;21.83;51.42;100993.00;4981108;28;20053;-82
2023/10/13 01:01:55;;;;;;;3.40;2.15;;;;;;;21.83;51.38;100979.75;4983880;28;20069;-83
2023/10/13 01:04:24;;;;;;;2.30;2.03;;;;;;;21.87;51.32;100988.13;4979675;28;20056;-83
2023/10/13 01:06:51;;;;;;;2.73;2.27;;;;;;;21.92;51.01;100986.56;4983314;28;20061;-82
2023/10/13 01:09:16;;;;;;;2.05;1.77;;;;;;;21.92;51.43;100983.94;4977093;28;20105;-83
2023/10/13 01:11:53;;;;;;;3.50;2.10;;;;;;;21.89;51.32;100975.50;4966407;28;20055;-83
2023/10/13 01:14:20;;;;;;;1.85;1.70;;;;;;;21.80;51.26;100958.09;4961831;28;20073;-83
2023/10/13 01:16:52;;;;;;;2.05;1.85;;;;;;;21.91;51.47;100974.34;4964838;28;20117;-82
2023/10/13 01:19:19;;;;;;;2.75;1.90;;;;;;;21.90;51.45;100963.88;4982330;28;20145;-83
2023/10/13 01:21:48;;;;;;;2.33;1.90;;;;;;;21.91;51.32;100966.38;4982700;28;20050;-83
2023/10/13 01:24:17;;;;;;;2.85;2.42;;;;;;;21.93;51.06;100967.00;4981214;28;20077;-83
2023/10/13 01:26:43;;;;;;;2.50;2.20;;;;;;;21.82;51.20;100945.47;4978954;28;20038;-83
2023/10/13 01:29:12;;;;;;;2.58;2.10;;;;;;;21.93;51.12;100961.69;4981139;28;20662;-83
2023/10/13 01:31:45;;;;;;;3.03;2.00;;;;;;;21.92;51.17;100960.06;4983156;28;20057;-83
2023/10/13 01:34:24;;;;;;;2.75;2.10;;;;;;;21.89;51.31;100949.81;4982158;28;20046;-83
2023/10/13 01:36:54;;;;;;;2.37;2.00;;;;;;;21.93;51.09;100952.94;4979038;28;20133;-83
2023/10/13 01:39:21;;;;;;;;;;;;;;;21.90;51.35;100951.47;4995918;28;20489;-83
2023/10/13 01:41:53;;;;;;;1.85;1.70;;;;;;;21.91;51.37;100947.00;4978109;28;19914;-82
2023/10/13 01:44:19;;;;;;;2.40;1.88;;;;;;;21.89;51.09;100933.91;4986183;28;20042;-82
2023/10/13 01:46:47;;;;;;;2.35;1.98;;;;;;;21.82;51.08;100919.78;4981620;28;20058;-82
2023/10/13 01:49:15;;;;;;;2.30;2.10;;;;;;;21.92;51.34;100930.91;4978764;28;20054;-82
2023/10/13 01:51:42;;;;;;;2.20;1.73;;;;;;;21.93;51.07;100931.72;4984238;28;20053;-82
2023/10/13 01:54:12;;;;;;;3.47;1.95;;;;;;;21.87;51.11;100927.97;4981250;28;20156;-82
2023/10/13 01:56:42;;;;;;;2.70;2.17;;;;;;;21.83;51.22;100916.13;4978403;28;20061;-82
2023/10/13 01:59:11;;;;;;;2.42;1.95;;;;;;;21.91;51.27;100915.19;4960816;28;20098;-82
2023/10/13 02:01:37;;;;;;;2.97;2.30;;;;;;;21.88;51.36;100908.41;4964713;28;20092;-83
2023/10/13 02:04:04;;;;;;;2.58;2.03;;;;;;;21.91;51.03;100909.88;4962745;28;20049;-82
2023/10/13 02:06:34;;;;;;;3.67;2.03;;;;;;;21.89;51.12;100896.78;4981125;28;20413;-83
2023/10/13 02:09:44;;;;;;;2.33;2.10;;;;;;;21.90;50.98;100897.59;4978823;28;20042;-83
2023/10/13 02:11:54;;;;;;;4.03;2.55;;;;;;;21.91;51.42;100892.16;4970501;28;21864;-83
2023/10/13 02:14:22;;;;;;;2.58;2.13;;;;;;;21.90;51.55;100890.50;4966096;28;20084;-82
2023/10/13 02:16:50;;;;;;;2.90;2.20;;;;;;;21.88;51.30;100881.09;4960014;28;20477;-82
2023/10/13 02:19:19;;;;;;;2.05;1.85;;;;;;;21.87;51.29;100880.25;4975320;28;20046;-83
2023/10/13 02:21:45;;;;;;;3.05;2.10;;;;;;;21.91;51.04;100883.38;4967264;28;20082;-83
2023/10/13 02:24:17;;;;;;;3.83;2.25;;;;;;;21.85;51.41;100876.97;4976424;28;20074;-83
2023/10/13 02:26:44;;;;;;;3.28;2.20;;;;;;;21.94;51.01;100886.44;4959282;28;20132;-82
2023/10/13 02:29:13;;;;;;;3.00;2.08;;;;;;;21.91;51.08;100889.50;4964032;28;20068;-83
2023/10/13 02:31:42;;;;;;;4.13;2.00;;;;;;;21.93;51.00;100879.50;4980710;28;20480;-84
2023/10/13 02:34:08;;;;;;;2.65;1.90;;;;;;;21.91;51.11;100870.13;4977103;28;20319;-82
2023/10/13 02:36:49;;;;;;;3.30;2.13;;;;;;;21.92;51.26;100863.81;4972623;28;20039;-83
2023/10/13 02:39:16;;;;;;;3.05;2.08;;;;;;;21.82;51.43;100837.63;4960549;28;20289;-83
2023/10/13 02:41:47;;;;;;;4.25;2.10;;;;;;;21.90;51.48;100848.09;4980602;28;20039;-82
2023/10/13 02:44:36;;;;;;;2.65;2.25;;;;;;;21.80;51.38;100834.34;4981062;28;20061;-82
2023/10/13 02:47:05;;;;;;;2.83;2.15;;;;;;;21.82;51.21;100842.09;4982147;28;20050;-83
2023/10/13 02:49:34;;;;;;;2.70;2.10;;;;;;;21.84;51.55;100834.75;4963243;28;20081;-82
2023/10/13 02:52:05;;;;;;;3.00;2.20;;;;;;;21.79;51.32;100824.75;4978312;28;20072;-83
2023/10/13 02:54:31;;;;;;;2.35;2.15;;;;;;;21.92;51.39;100839.94;4977132;28;20162;-83
2023/10/13 02:56:59;;;;;;;4.22;2.00;;;;;;;21.88;51.23;100826.22;4979394;28;20137;-82
2023/10/13 02:59:34;;;;;;;2.10;1.90;;;;;;;21.88;51.33;100831.53;4976825;28;20504;-82
2023/10/13 03:04:48;;;;;;;4.05;2.13;;;;;;;21.91;51.03;100839.13;4972828;28;20045;-82
2023/10/13 03:07:23;;;;;;;1.92;1.70;;;;;;;21.92;51.51;100824.03;4977507;28;20034;-82
2023/10/13 03:09:52;;;;;;;3.15;2.20;;;;;;;21.90;51.32;100826.03;4978642;28;20479;-82
2023/10/13 03:12:19;;;;;;;2.42;1.80;;;;;;;21.90;51.33;100823.38;4979330;28;20785;-82
2023/10/13 03:14:48;;;;;;;4.13;2.30;;;;;;;21.85;51.07;100808.06;4977168;28;20664;-82
2023/10/13 03:17:16;;;;;;;2.47;2.17;;;;;;;21.90;51.39;100816.28;4976323;28;20040;-83
2023/10/13 03:19:54;;;;;;;2.47;2.05;;;;;;;21.92;51.24;100813.44;4978109;28;20050;-82
2023/10/13 03:22:30;;;;;;;2.25;2.00;;;;;;;21.91;51.13;100814.44;4960054;28;20524;-82
2023/10/13 03:24:59;;;;;;;3.25;2.20;;;;;;;21.76;51.04;100782.72;4980121;28;20592;-82
2023/10/13 03:27:39;;;;;;;2.47;2.00;;;;;;;21.92;51.34;100801.00;4980859;28;20085;-82
2023/10/13 03:30:13;;;;;;;3.67;2.13;;;;;;;21.92;51.38;100801.00;4978683;28;20378;-82
2023/10/13 03:32:43;;;;;;;3.30;2.20;;;;;;;21.80;51.36;100772.56;4965255;28;20117;-82
2023/10/13 03:35:23;;;;;;;;;;;;;;;21.91;51.15;100785.28;4981918;28;20449;-83
2023/10/13 03:37:49;;;;;;;;;;;;;;;21.90;51.08;100781.81;4985495;28;19941;-83
2023/10/13 03:45:39;;;;;;;2.40;2.03;;;;;;;21.91;51.25;100767.53;4981018;28;20089;-82
2023/10/13 03:51:07;;;;;;;1.95;1.70;;;;;;;21.89;51.32;100756.28;4981648;28;20054;-82
2023/10/13 03:53:33;;;;;;;2.30;2.10;;;;;;;21.85;51.33;100740.97;4965535;28;20053;-82
2023/10/13 03:56:12;;;;;;;3.17;2.30;;;;;;;21.80;51.27;100732.78;4979543;28;20042;-82
2023/10/13 03:58:42;;;;;;;2.95;2.13;;;;;;;21.88;51.42;100740.56;4983962;28;20061;-83
2023/10/13 04:01:09;;;;;;;3.45;2.30;;;;;;;21.88;51.39;100727.31;4962559;28;20046;-83
2023/10/13 04:03:36;;;;;;;2.13;1.98;;;;;;;21.90;51.41;100717.34;4984263;28;20790;-83
2023/10/13 04:06:08;;;;;;;2.90;1.95;;;;;;;21.89;51.10;100719.16;4983870;28;20444;-83
2023/10/13 04:16:39;;;;;;;3.33;2.33;;;;;;;21.92;51.53;100699.44;4981492;28;20050;-84
2023/10/13 04:19:08;;;;;;;3.10;2.10;;;;;;;21.91;51.45;100681.88;4982953;28;20511;-84
2023/10/13 04:21:39;;;;;;;2.60;2.15;;;;;;;21.91;51.50;100679.25;4981501;28;20513;-84
2023/10/13 04:30:19;;;;;;;1.88;1.77;;;;;;;21.84;51.33;100646.56;4977262;28;20053;-84
2023/10/13 04:32:38;;;;;;;2.53;1.92;;;;;;;21.88;51.40;100642.50;4980216;28;20058;-84
2023/10/13 04:38:01;;;;;;;2.47;2.10;;;;;;;21.77;51.22;100613.91;4981874;28;20046;-84
2023/10/13 04:40:34;;;;;;;2.05;1.88;;;;;;;21.82;51.14;100614.13;4982054;28;20038;-84
2023/10/13 04:43:16;;;;;;;2.53;2.10;;;;;;;21.84;51.13;100612.09;4978363;28;20062;-84
2023/10/13 04:45:53;;;;;;;2.50;2.20;;;;;;;21.90;51.20;100608.66;4964232;28;20078;-84
2023/10/13 04:50:56;;;;;;;3.50;2.20;;;;;;;21.90;51.49;100613.94;4979503;28;20045;-84
2023/10/13 04:53:34;;;;;;;2.28;2.08;;;;;;;21.90;51.16;100613.94;4984562;28;20489;-83
2023/10/13 05:45:23;;;;;;;4.47;2.38;;;;;;;21.88;51.41;100502.00;4979726;28;20528;-85
2023/10/13 06:31:06;;;;;;;2.38;2.17;;;;;;;21.76;51.42;100419.63;4978627;28;20081;-84
2023/10/13 06:33:35;;;;;;;2.80;2.28;;;;;;;21.82;51.38;100437.38;4982199;28;20038;-84
2023/10/13 06:36:09;;;;;;;2.40;2.13;;;;;;;21.87;51.22;100442.03;4983962;28;20058;-84
2023/10/13 06:38:38;;;;;;;2.45;2.25;;;;;;;21.89;51.55;100442.66;4977950;28;20109;-84
2023/10/13 06:41:07;;;;;;;2.83;2.30;;;;;;;21.89;51.33;100432.06;4956481;28;20501;-84
2023/10/13 06:43:39;;;;;;;2.45;2.25;;;;;;;21.79;51.56;100419.22;4977813;28;20441;-84
2023/10/13 06:46:07;;;;;;;2.92;2.45;;;;;;;21.82;51.29;100428.59;4978637;28;20054;-83
2023/10/13 06:48:34;;;;;;;2.33;2.13;;;;;;;21.87;51.45;100436.75;4985566;28;20281;-83
2023/10/13 06:51:17;;;;;;;2.65;2.45;;;;;;;21.89;51.42;100440.00;4979622;28;20045;-84
2023/10/13 06:53:47;;;;;;;2.33;2.13;;;;;;;21.86;51.51;100437.75;4979259;28;20050;-84
2023/10/13 06:56:22;;;;;;;2.50;2.22;;;;;;;21.86;51.46;100435.94;4962147;28;20105;-86
2023/10/13 06:58:51;;;;;;;2.53;2.20;;;;;;;21.87;51.64;100450.00;4982650;28;20892;-84
2023/10/13 07:01:22;;;;;;;2.95;2.20;;;;;;;21.82;51.43;100447.16;4982268;28;20050;-85
2023/10/13 07:03:53;;;;;;;2.45;2.10;;;;;;;21.69;51.63;100427.53;4974777;28;20054;-84
2023/10/13 07:06:22;;;;;;;2.42;2.22;;;;;;;21.76;51.61;100429.41;4978076;28;20058;-86
2023/10/13 07:08:55;;;;;;;2.25;2.05;;;;;;;21.88;51.58;100457.75;4978853;28;20046;-84
2023/10/13 07:11:42;;;;;;;2.47;2.28;;;;;;;21.88;51.42;100449.78;4981260;28;20062;-84
2023/10/13 07:14:10;;;;;;;3.08;2.15;;;;;;;21.84;51.43;100437.16;4988853;28;20183;-83
2023/10/13 07:17:00;;;;;;;3.17;2.20;;;;;;;21.87;51.67;100428.78;4978338;28;20054;-84
2023/10/13 07:19:29;;;;;;;2.35;2.00;;;;;;;21.89;51.49;100426.75;4980845;28;20113;-84
2023/10/13 07:22:02;;;;;;;2.55;2.20;;;;;;;21.89;51.28;100418.81;4949763;28;20049;-84
2023/10/13 07:24:31;;;;;;;2.50;2.22;;;;;;;21.79;51.27;100410.44;4978419;28;20050;-84
2023/10/13 07:27:05;;;;;;;3.45;2.42;;;;;;;21.91;51.58;100422.91;4963963;28;20039;-84
2023/10/13 07:29:35;;;;;;;2.60;2.17;;;;;;;21.92;51.17;100423.72;4978791;28;20051;-84
2023/10/13 07:32:12;;;;;;;2.35;2.05;;;;;;;21.91;51.47;100436.16;4978851;28;20046;-84
2023/10/13 07:34:39;;;;;;;2.28;2.03;;;;;;;21.88;51.56;100420.63;4976397;28;20137;-84
2023/10/13 07:37:09;;;;;;;2.88;2.20;;;;;;;21.94;51.19;100424.34;4978206;28;20057;-84
2023/10/13 07:39:34;;;;;;;2.20;2.00;;;;;;;21.93;51.39;100430.66;4979846;28;20057;-84
2023/10/13 07:42:14;;;;;;;2.20;2.00;;;;;;;21.90;51.31;100412.47;4960490;28;20046;-82
2023/10/13 07:44:45;;;;;;;3.08;2.22;;;;;;;21.94;51.53;100421.69;4983603;28;20050;-83
2023/10/13 07:47:11;;;;;;;2.15;1.95;;;;;;;22.01;50.95;100403.94;4978387;28;20058;-83
2023/10/13 07:49:39;;;;;;;2.45;2.25;;;;;;;21.98;51.06;100391.91;4983631;28;20074;-84
2023/10/13 07:55:10;;;;;;;3.15;2.10;;;;;;;22.04;51.21;100384.97;4975092;28;20050;-84
2023/10/13 07:57:36;;;;;;;2.92;2.10;;;;;;;22.08;51.03;100391.50;4980511;28;20055;-84
2023/10/13 08:00:26;;;;;;;3.10;2.05;;;;;;;22.07;51.14;100400.47;4981473;28;20062;-83
2023/10/13 08:03:09;;;;;;;3.28;2.30;;;;;;;22.08;50.95;100417.19;4977030;28;20536;-83
2023/10/13 08:08:43;;;;;;;2.28;1.95;;;;;;;22.08;51.05;100390.69;4957895;28;20054;-84
2023/10/13 08:13:56;;;;;;;2.47;2.00;;;;;;;22.07;51.18;100354.59;4964045;28;20521;-84
2023/10/13 08:16:22;;;;;;;2.10;1.90;;;;;;;22.09;51.13;100339.31;4980056;28;20081;-83
2023/10/13 08:18:52;;;;;;;2.25;2.03;;;;;;;22.10;51.29;100325.03;4980975;28;20054;-84
2023/10/13 08:21:31;;;;;;;;;;;;;;;22.09;51.21;100326.06;4981964;28;20065;-84
2023/10/13 08:23:58;;;;;;;2.05;1.88;;;;;;;22.06;51.07;100316.66;4982727;28;19918;-84
2023/10/13 08:26:29;;;;;;;2.30;2.10;;;;;;;22.08;50.90;100313.78;4982221;28;20046;-84
2023/10/13 08:32:14;;;;;;;2.53;1.95;;;;;;;22.02;51.21;100283.59;4979742;28;20086;-84
2023/10/13 08:47:53;;;;;;;4.38;2.08;;;;;;;22.01;51.29;100266.06;4981325;28;20078;-83
2023/10/13 08:51:43;;;;;;;2.00;1.90;;;;;;;22.09;51.05;100287.09;4980076;28;20116;-84
2023/10/13 09:06:57;;;;;;;2.67;2.05;;;;;;;22.09;51.17;100247.31;4976504;28;20046;-83
2023/10/13 09:09:26;;;;;;;2.28;1.90;;;;;;;22.05;51.34;100242.63;4963406;28;20521;-83
2023/10/13 09:12:09;;;;;;;2.45;2.25;;;;;;;21.98;51.09;100229.38;4979748;28;20452;-83
2023/10/13 09:14:42;;;;;;;2.63;2.20;;;;;;;22.08;51.13;100232.41;4965188;28;20047;-83
2023/10/13 09:17:11;;;;;;;2.08;1.95;;;;;;;22.02;51.11;100228.75;4979486;28;20069;-82
2023/10/13 09:19:57;;;;;;;2.55;2.20;;;;;;;22.03;51.12;100213.66;4981813;28;20070;-82
2023/10/13 09:22:28;;;;;;;3.00;2.03;;;;;;;22.06;51.56;100221.22;4965193;28;20050;-82
2023/10/13 09:25:00;;;;;;;2.20;2.08;;;;;;;22.05;51.43;100202.84;4982952;28;20561;-82
2023/10/13 09:27:37;;;;;;;1.98;1.80;;;;;;;22.09;51.26;100198.78;4981877;28;20049;-83
2023/10/13 09:30:20;;;;;;;3.45;2.50;;;;;;;22.07;51.40;100220.19;4978215;28;20046;-82
2023/10/13 09:32:46;;;;;;;2.17;1.85;;;;;;;22.00;51.56;100193.66;4968311;28;20050;-82
2023/10/13 09:35:27;;;;;;;2.10;1.90;;;;;;;22.01;51.31;100187.34;4980273;28;20045;-83
2023/10/13 09:37:56;;;;;;;2.72;2.20;;;;;;;22.08;51.44;100191.81;4976997;28;20547;-82
2023/10/13 09:40:33;;;;;;;2.40;2.05;;;;;;;22.06;51.67;100170.00;4981756;28;20069;-82
2023/10/13 09:43:08;;;;;;;2.53;2.05;;;;;;;22.04;51.64;100178.16;4982742;28;20081;-82
2023/10/13 09:48:26;;;;;;;2.60;2.05;;;;;;;22.07;51.28;100159.19;4981454;28;20104;-82
2023/10/13 09:50:56;;;;;;;4.05;2.25;;;;;;;22.01;51.55;100162.66;4980694;28;20059;-82
2023/10/13 09:53:23;;;;;;;2.28;1.95;;;;;;;22.09;51.26;100169.63;4979979;28;20054;-83
2023/10/13 09:56:23;;;;;;;2.38;2.00;;;;;;;22.08;51.26;100160.81;4982886;28;20563;-82
2023/10/13 09:59:16;;;;;;;2.85;2.17;;;;;;;22.05;51.46;100165.75;4979736;28;20042;-83
2023/10/13 10:01:56;;;;;;;2.70;1.98;;;;;;;22.08;51.54;100166.13;4980025;28;20042;-83
2023/10/13 10:04:23;;;;;;;2.60;1.83;;;;;;;22.07;51.71;100161.84;4943418;28;20043;-82
2023/10/13 10:06:53;;;;;;;3.40;2.10;;;;;;;22.06;51.56;100162.06;4957280;28;20437;-83
2023/10/13 10:09:22;;;;;;;2.72;2.10;;;;;;;22.08;51.41;100162.66;4935859;28;20074;-82
2023/10/13 10:12:09;;;;;;;2.88;2.22;;;;;;;22.10;51.29;100156.16;4963059;28;20039;-83
2023/10/13 10:14:39;;;;;;;2.35;2.15;;;;;;;22.10;51.69;100168.59;4962563;28;20050;-83
2023/10/13 10:17:09;;;;;;;2.15;1.88;;;;;;;22.04;51.41;100154.28;4959434;28;20163;-82
2023/10/13 10:19:55;;;;;;;2.33;2.10;;;;;;;22.09;51.36;100154.53;4961746;28;20047;-83
2023/10/13 10:22:35;;;;;;;2.90;2.08;;;;;;;22.09;51.59;100145.75;4962680;28;20768;-82
2023/10/13 10:25:24;;;;;;;6.13;2.28;;;;;;;22.07;51.48;100134.53;4960825;28;21334;-83
2023/10/13 10:28:01;;;;;;;3.10;2.13;;;;;;;22.00;51.54;100119.44;4963402;28;20525;-82
2023/10/13 10:30:28;;;;;;;3.72;2.50;;;;;;;22.12;51.72;100132.06;4943058;28;20066;-82
2023/10/13 10:33:18;;;;;;;4.85;2.33;;;;;;;22.01;51.44;100112.28;4963850;28;20059;-83
2023/10/13 10:35:45;;;;;;;2.80;2.22;;;;;;;22.08;51.38;100129.00;4941546;28;20390;-83
2023/10/13 10:38:24;;;;;;;2.50;2.20;;;;;;;22.09;51.81;100132.50;4943092;28;20075;-83
2023/10/13 10:40:57;;;;;;;2.15;1.90;;;;;;;22.09;51.46;100106.00;4962923;28;20078;-83
2023/10/13 10:43:43;;;;;;;4.20;2.47;;;;;;;22.12;51.42;100113.50;4959806;28;20448;-82
2023/10/13 10:46:14;;;;;;;3.70;2.40;;;;;;;22.13;51.45;100108.00;4946217;28;20609;-82
2023/10/13 10:48:43;;;;;;;3.10;2.20;;;;;;;22.12;51.72;100110.88;4964319;28;20054;-81
2023/10/13 10:51:22;;;;;;;4.53;2.47;;;;;;;22.12;51.38;100110.88;4952110;28;20046;-83
2023/10/13 10:53:52;;;;;;;3.28;1.98;;;;;;;22.12;51.33;100108.22;4940649;28;20055;-82
2023/10/13 10:56:25;;;;;;;3.95;2.00;;;;;;;22.13;51.88;100085.97;4954919;28;20531;-81
2023/10/13 10:58:59;;;;;;;3.08;2.58;;;;;;;22.13;51.73;100080.66;4964254;28;20077;-82
2023/10/13 11:01:38;;;;;;;2.53;2.08;;;;;;;22.11;51.68;100078.22;4956474;28;20486;-82
2023/10/13 11:04:08;;;;;;;2.35;2.10;;;;;;;22.12;51.41;100069.25;4973494;28;20054;-82
2023/10/13 11:06:41;;;;;;;2.58;1.90;;;;;;;22.14;51.71;100063.72;4957779;28;20452;-83
2023/10/13 11:11:52;;;;;;;5.10;2.20;;;;;;;22.16;51.52;100061.69;4982230;28;20065;-82
2023/10/13 11:14:28;;;;;;;3.05;2.38;;;;;;;22.11;51.77;100066.81;4978889;28;20113;-83
2023/10/13 11:17:13;;;;;;;2.90;2.28;;;;;;;22.07;51.60;100063.75;4981980;28;20047;-83
2023/10/13 11:19:42;;;;;;;3.78;2.47;;;;;;;22.13;51.50;100065.56;4977812;28;20054;-83
2023/10/13 11:22:36;;;;;;;3.08;2.28;;;;;;;22.01;51.65;100043.38;4980009;28;20069;-84
2023/10/13 11:25:14;;;;;;;4.50;2.58;;;;;;;22.15;51.54;100050.25;4965001;28;20126;-84
2023/10/13 11:30:24;;;;;;;2.70;1.80;;;;;;;22.16;51.86;100051.06;4978167;28;20051;-84
2023/10/13 11:33:00;;;;;;;2.42;2.03;;;;;;;22.14;51.60;100042.50;4990412;28;20575;-84
2023/10/13 11:35:48;;;;;;;3.50;2.42;;;;;;;22.08;51.86;100048.66;4981473;28;20096;-84
2023/10/13 11:38:14;;;;;;;6.13;2.47;;;;;;;22.08;51.97;100051.31;4965601;28;20794;-84
2023/10/13 11:43:24;;;;;;;4.78;2.45;;;;;;;22.14;51.96;100029.25;4973452;28;20505;-84
2023/10/13 11:46:12;;;;;;;3.33;2.20;;;;;;;22.16;51.96;100027.19;4982209;28;20050;-84
2023/10/13 11:48:39;;;;;;;3.35;2.20;;;;;;;22.08;51.66;100020.28;4978523;28;20062;-84
2023/10/13 11:51:09;;;;;;;3.45;2.72;;;;;;;22.16;51.72;100043.13;4961302;28;20424;-84
2023/10/13 11:53:35;;;;;;;;;;;;;;;22.18;51.65;100044.53;4982521;28;20039;-84
2023/10/13 11:56:01;;;;;;;3.50;2.63;;;;;;;22.12;51.85;100037.44;4985601;28;19918;-85
2023/10/13 11:58:28;;;;;;;2.97;2.17;;;;;;;22.14;51.94;100027.41;4968899;28;20042;-87
2023/10/13 12:01:08;;;;;;;3.63;2.63;;;;;;;22.13;51.56;100012.53;4985944;28;20061;-85
2023/10/13 12:11:41;;;;;;;6.18;2.60;;;;;;;22.13;51.98;100009.88;4985640;28;20066;-85
2023/10/13 12:14:21;;;;;;;3.55;2.97;;;;;;;22.14;51.53;100010.69;4980987;28;20062;-85
2023/10/13 12:16:52;;;;;;;;;;;;;;;22.18;51.57;100007.41;4980160;28;20043;-85
2023/10/13 12:19:23;;;;;;;3.67;2.38;;;;;;;22.19;51.93;100006.38;4984908;28;19929;-84
2023/10/13 12:21:54;;;;;;;3.33;2.15;;;;;;;22.18;51.52;100003.94;4982186;28;20061;-85
2023/10/13 12:26:58;;;;;;;4.20;2.57;;;;;;;22.18;51.55;100015.34;4981379;28;20062;-84
2023/10/13 12:29:28;;;;;;;6.63;2.40;;;;;;;22.13;51.62;99990.50;4981235;28;20062;-85
2023/10/13 12:32:12;;;;;;;3.78;2.60;;;;;;;22.17;51.64;99995.16;4983225;28;20117;-85
2023/10/13 12:35:58;;;;;;;5.40;2.80;;;;;;;22.17;51.59;99987.22;4966516;28;20102;-85
2023/10/13 12:51:21;;;;;;;3.40;2.55;;;;;;;22.17;51.87;100008.44;4982991;28;20113;-84
2023/10/13 12:53:48;;;;;;;4.68;2.63;;;;;;;22.18;51.82;99983.53;4972179;28;20046;-85
2023/10/13 12:56:15;;;;;;;4.72;2.50;;;;;;;22.17;51.68;99984.56;4982340;28;20065;-83
2023/10/13 12:58:41;;;;;;;4.18;2.78;;;;;;;22.19;51.81;99979.03;4960562;28;20551;-85
2023/10/13 13:01:07;;;;;;;2.53;2.25;;;;;;;22.16;51.72;99980.28;4983644;28;20095;-85
2023/10/13 13:03:33;;;;;;;3.72;2.58;;;;;;;22.14;51.84;99979.69;4979907;28;20057;-84
2023/10/13 13:05:58;;;;;;;4.88;2.60;;;;;;;22.14;51.92;99971.75;4966718;28;20053;-85
2023/10/13 13:08:24;;;;;;;3.47;2.33;;;;;;;22.15;51.88;99983.16;4982088;28;20046;-84
2023/10/13 13:10:52;;;;;;;4.95;2.63;;;;;;;22.17;52.02;99987.22;4986975;28;20059;-85
2023/10/13 13:13:24;;;;;;;3.67;2.67;;;;;;;22.07;51.74;99970.94;4984037;28;20162;-85
2023/10/13 13:15:50;;;;;;;3.60;2.58;;;;;;;22.18;52.00;99985.38;4978714;28;20050;-85
2023/10/13 13:18:16;;;;;;;4.53;2.63;;;;;;;22.10;51.97;99959.13;4981189;28;20069;-85
2023/10/13 13:20:52;;;;;;;2.95;2.38;;;;;;;22.18;51.80;99966.81;4981312;28;20085;-84
2023/10/13 13:23:19;;;;;;;3.92;2.67;;;;;;;22.08;51.90;99937.28;4980613;28;20058;-85
2023/10/13 13:25:47;;;;;;;3.28;2.53;;;;;;;22.11;51.50;99945.66;4995614;28;20050;-85
2023/10/13 13:28:15;;;;;;;3.95;2.83;;;;;;;22.15;51.94;99967.25;4993508;28;20057;-85
2023/10/13 13:30:44;;;;;;;3.53;2.45;;;;;;;22.17;52.00;99963.34;4983753;28;20512;-86
2023/10/13 13:33:12;;;;;;;5.38;2.70;;;;;;;22.18;52.05;99964.97;4979768;28;20137;-85
2023/10/13 13:35:39;;;;;;;3.42;2.40;;;;;;;22.11;51.95;99950.97;4982495;28;20132;-85
2023/10/13 13:38:13;;;;;;;3.20;2.40;;;;;;;22.16;51.53;99956.41;4980103;28;20050;-86
2023/10/13 13:40:39;;;;;;;3.78;2.97;;;;;;;22.17;51.66;99959.88;4967115;28;20050;-85
2023/10/13 13:43:06;;;;;;;4.30;2.53;;;;;;;22.17;51.68;99939.47;4982251;28;20046;-84
2023/10/13 13:45:34;;;;;;;4.10;2.70;;;;;;;22.13;51.81;99937.47;4977135;28;20066;-85
2023/10/13 13:48:00;;;;;;;5.35;3.00;;;;;;;22.14;51.46;99928.50;4981212;28;20053;-84
2023/10/13 13:50:28;;;;;;;3.72;2.80;;;;;;;22.10;51.64;99925.47;4977492;28;20053;-85
2023/10/13 13:52:57;;;;;;;5.68;3.45;;;;;;;22.15;52.18;99943.38;4976023;28;20050;-85
2023/10/13 13:55:28;;;;;;;4.90;3.13;;;;;;;22.16;51.76;99956.41;4979504;28;20544;-84
2023/10/13 13:57:56;;;;;;;4.18;2.65;;;;;;;22.17;52.01;99955.38;4978375;28;20556;-85
2023/10/13 14:03:12;;;;;;;4.65;2.90;;;;;;;22.17;51.68;99944.78;4981133;28;20113;-85
2023/10/13 14:05:42;;;;;;;4.72;2.70;;;;;;;22.17;51.78;99936.81;4981220;28;20497;-84
2023/10/13 14:08:11;;;;;;;3.45;3.00;;;;;;;22.12;52.00;99927.91;4980410;28;20078;-85
2023/10/13 14:16:16;;;;;;;5.45;3.17;;;;;;;22.14;53.70;99926.66;4979290;28;20048;-85
2023/10/13 14:18:49;;;;;;;8.23;3.70;;;;;;;22.07;53.77;99909.97;4980034;28;20042;-85
2023/10/13 14:21:16;;;;;;;8.10;3.67;;;;;;;22.16;53.67;99926.44;4976737;28;20622;-85
2023/10/13 14:23:45;;;;;;;8.10;3.63;;;;;;;22.11;54.04;99932.41;4979420;28;20052;-85
2023/10/13 14:26:12;;;;;;;6.20;3.53;;;;;;;22.14;53.80;99928.50;4978064;28;20091;-85
2023/10/13 14:28:50;;;;;;;7.30;3.85;;;;;;;22.05;54.26;99917.34;4981056;28;20127;-85
2023/10/13 14:31:18;;;;;;;7.22;3.78;;;;;;;22.09;53.91;99923.03;4977569;28;20539;-85
2023/10/13 14:33:47;;;;;;;7.00;3.67;;;;;;;22.08;54.07;99930.16;4958829;28;20129;-86
2023/10/13 14:36:13;;;;;;;6.33;3.77;;;;;;;22.10;54.44;99920.19;4973082;28;20804;-84
2023/10/13 14:38:40;;;;;;;8.05;3.60;;;;;;;22.05;54.35;99909.38;4975601;28;20768;-85
2023/10/13 14:41:05;;;;;;;6.25;3.35;;;;;;;22.09;54.10;99915.09;4943258;28;20065;-85
2023/10/13 14:43:31;;;;;;;9.60;4.47;;;;;;;22.08;54.14;99910.78;4978801;28;20046;-86
2023/10/13 14:45:56;;;;;;;7.43;4.05;;;;;;;21.99;54.43;99894.31;4980403;28;20122;-86
2023/10/13 14:48:25;;;;;;;10.48;4.45;;;;;;;22.07;54.37;99907.31;4977562;28;20077;-85
2023/10/13 14:50:50;;;;;;;7.68;4.05;;;;;;;22.03;54.86;99895.50;4962194;28;20069;-85
2023/10/13 14:53:19;;;;;;;9.68;4.18;;;;;;;22.07;54.33;99914.47;4978611;28;20046;-86
2023/10/13 14:55:45;;;;;;;6.32;4.05;;;;;;;22.09;54.53;99907.13;4964837;28;20136;-85
2023/10/13 14:58:15;;;;;;;5.88;3.80;;;;;;;22.07;54.83;99903.88;4963435;28;20484;-86
2023/10/13 15:00:45;;;;;;;9.77;4.53;;;;;;;21.98;54.56;99914.72;4980373;28;20051;-84
2023/10/13 15:03:11;;;;;;;5.47;3.63;;;;;;;22.05;54.05;99930.59;4964675;28;20046;-86
2023/10/13 15:05:43;;;;;;;8.15;3.75;;;;;;;22.00;53.85;99915.31;4980752;28;20053;-86
2023/10/13 15:08:09;;;;;;;8.52;3.80;;;;;;;22.07;53.81;99925.06;4979761;28;20042;-86
2023/10/13 15:10:36;;;;;;;6.75;3.72;;;;;;;22.08;53.68;99934.66;4981086;28;20065;-86
2023/10/13 15:13:05;;;;;;;6.60;3.85;;;;;;;22.05;53.80;99933.25;4980445;28;20476;-85
2023/10/13 15:15:32;;;;;;;6.15;3.60;;;;;;;22.09;53.42;99944.25;4981229;28;20047;-86
2023/10/13 15:17:58;;;;;;;7.13;4.18;;;;;;;22.04;53.36;99926.28;4981105;28;20548;-85
2023/10/13 15:20:24;;;;;;;6.20;3.70;;;;;;;22.11;53.37;99939.53;4964249;28;20039;-85
2023/10/13 15:22:49;;;;;;;5.47;3.58;;;;;;;22.10;53.35;99941.38;4977033;28;20149;-85